<?xml version="1.0" encoding="UTF-8" standalone="no" ?>
<gpx xmlns="http://www.topografix.com/GPX/1/1" xmlns:xsi="http://www.w3.org/2001/XMLSchema-instance" xsi:schemaLocation="http://www.topografix.com/GPX/1/1 http://www.topografix.com/GPX/1/1/gpx.xsd" version="1.1" creator="VisuGPX - https://www.visugpx.com">
  <metadata>
    <name>Mont du lyonnais St Martin</name>
    <desc><![CDATA[Circuits VTT autour de St martin en Haut pour vacances 2019]]></desc>
  </metadata>
  <trk>
    <name><![CDATA[5651698-Sortie Club VTT des Monts du 24/01/2016]]></name>
    <trkseg>
      <trkpt lat="45.65837" lon="4.56405">
        <ele>725</ele>
        <time>2019-07-29T10:36:32Z</time>
      </trkpt>
      <trkpt lat="45.65783" lon="4.56358">
        <ele>725</ele>
        <time>2019-07-29T10:36:47Z</time>
      </trkpt>
      <trkpt lat="45.65744" lon="4.56328">
        <ele>725</ele>
        <time>2019-07-29T10:36:57Z</time>
      </trkpt>
      <trkpt lat="45.6566" lon="4.56199">
        <ele>721</ele>
        <time>2019-07-29T10:37:26Z</time>
      </trkpt>
      <trkpt lat="45.65591" lon="4.56143">
        <ele>721</ele>
        <time>2019-07-29T10:37:44Z</time>
      </trkpt>
      <trkpt lat="45.65555" lon="4.56066">
        <ele>723</ele>
        <time>2019-07-29T10:38:00Z</time>
      </trkpt>
      <trkpt lat="45.65549" lon="4.55963">
        <ele>727</ele>
        <time>2019-07-29T10:38:16Z</time>
      </trkpt>
      <trkpt lat="45.65525" lon="4.55873">
        <ele>730</ele>
        <time>2019-07-29T10:38:32Z</time>
      </trkpt>
      <trkpt lat="45.65399" lon="4.5574">
        <ele>738</ele>
        <time>2019-07-29T10:39:09Z</time>
      </trkpt>
      <trkpt lat="45.65339" lon="4.55658">
        <ele>735</ele>
        <time>2019-07-29T10:39:28Z</time>
      </trkpt>
      <trkpt lat="45.65315" lon="4.55598">
        <ele>729</ele>
        <time>2019-07-29T10:39:39Z</time>
      </trkpt>
      <trkpt lat="45.6524" lon="4.55491">
        <ele>729</ele>
        <time>2019-07-29T10:40:04Z</time>
      </trkpt>
      <trkpt lat="45.65108" lon="4.55418">
        <ele>734</ele>
        <time>2019-07-29T10:40:37Z</time>
      </trkpt>
      <trkpt lat="45.65063" lon="4.55324">
        <ele>734</ele>
        <time>2019-07-29T10:40:56Z</time>
      </trkpt>
      <trkpt lat="45.65045" lon="4.55272">
        <ele>734</ele>
        <time>2019-07-29T10:41:05Z</time>
      </trkpt>
      <trkpt lat="45.64997" lon="4.55229">
        <ele>737</ele>
        <time>2019-07-29T10:41:18Z</time>
      </trkpt>
      <trkpt lat="45.64979" lon="4.55173">
        <ele>733</ele>
        <time>2019-07-29T10:41:28Z</time>
      </trkpt>
      <trkpt lat="45.64952" lon="4.55087">
        <ele>726</ele>
        <time>2019-07-29T10:41:44Z</time>
      </trkpt>
      <trkpt lat="45.64913" lon="4.55036">
        <ele>720</ele>
        <time>2019-07-29T10:41:56Z</time>
      </trkpt>
      <trkpt lat="45.64934" lon="4.54924">
        <ele>708</ele>
        <time>2019-07-29T10:42:15Z</time>
      </trkpt>
      <trkpt lat="45.64916" lon="4.54821">
        <ele>698</ele>
        <time>2019-07-29T10:42:32Z</time>
      </trkpt>
      <trkpt lat="45.64883" lon="4.54761">
        <ele>695</ele>
        <time>2019-07-29T10:42:45Z</time>
      </trkpt>
      <trkpt lat="45.64886" lon="4.54671">
        <ele>688</ele>
        <time>2019-07-29T10:43:00Z</time>
      </trkpt>
      <trkpt lat="45.64844" lon="4.545">
        <ele>680</ele>
        <time>2019-07-29T10:43:29Z</time>
      </trkpt>
      <trkpt lat="45.64769" lon="4.54285">
        <ele>674</ele>
        <time>2019-07-29T10:44:08Z</time>
      </trkpt>
      <trkpt lat="45.64724" lon="4.54216">
        <ele>675</ele>
        <time>2019-07-29T10:44:24Z</time>
      </trkpt>
      <trkpt lat="45.64703" lon="4.54143">
        <ele>666</ele>
        <time>2019-07-29T10:44:37Z</time>
      </trkpt>
      <trkpt lat="45.64682" lon="4.54062">
        <ele>656</ele>
        <time>2019-07-29T10:44:51Z</time>
      </trkpt>
      <trkpt lat="45.64646" lon="4.5386">
        <ele>644</ele>
        <time>2019-07-29T10:45:25Z</time>
      </trkpt>
      <trkpt lat="45.64595" lon="4.53761">
        <ele>639</ele>
        <time>2019-07-29T10:45:45Z</time>
      </trkpt>
      <trkpt lat="45.64559" lon="4.53714">
        <ele>636</ele>
        <time>2019-07-29T10:45:56Z</time>
      </trkpt>
      <trkpt lat="45.64421" lon="4.53646">
        <ele>638</ele>
        <time>2019-07-29T10:46:30Z</time>
      </trkpt>
      <trkpt lat="45.64388" lon="4.53594">
        <ele>628</ele>
        <time>2019-07-29T10:46:42Z</time>
      </trkpt>
      <trkpt lat="45.64364" lon="4.53534">
        <ele>620</ele>
        <time>2019-07-29T10:46:53Z</time>
      </trkpt>
      <trkpt lat="45.64325" lon="4.53534">
        <ele>622</ele>
        <time>2019-07-29T10:47:02Z</time>
      </trkpt>
      <trkpt lat="45.64286" lon="4.53508">
        <ele>615</ele>
        <time>2019-07-29T10:47:12Z</time>
      </trkpt>
      <trkpt lat="45.64232" lon="4.53551">
        <ele>615</ele>
        <time>2019-07-29T10:47:27Z</time>
      </trkpt>
      <trkpt lat="45.64166" lon="4.53551">
        <ele>615</ele>
        <time>2019-07-29T10:47:42Z</time>
      </trkpt>
      <trkpt lat="45.64154" lon="4.53495">
        <ele>611</ele>
        <time>2019-07-29T10:47:52Z</time>
      </trkpt>
      <trkpt lat="45.64079" lon="4.53422">
        <ele>606</ele>
        <time>2019-07-29T10:48:13Z</time>
      </trkpt>
      <trkpt lat="45.63986" lon="4.53418">
        <ele>612</ele>
        <time>2019-07-29T10:48:35Z</time>
      </trkpt>
      <trkpt lat="45.63757" lon="4.53577">
        <ele>643</ele>
        <time>2019-07-29T10:49:34Z</time>
      </trkpt>
      <trkpt lat="45.63715" lon="4.53624">
        <ele>649</ele>
        <time>2019-07-29T10:49:47Z</time>
      </trkpt>
      <trkpt lat="45.63631" lon="4.53676">
        <ele>654</ele>
        <time>2019-07-29T10:50:08Z</time>
      </trkpt>
      <trkpt lat="45.63577" lon="4.53736">
        <ele>656</ele>
        <time>2019-07-29T10:50:24Z</time>
      </trkpt>
      <trkpt lat="45.6352" lon="4.53757">
        <ele>656</ele>
        <time>2019-07-29T10:50:38Z</time>
      </trkpt>
      <trkpt lat="45.63352" lon="4.53718">
        <ele>660</ele>
        <time>2019-07-29T10:51:17Z</time>
      </trkpt>
      <trkpt lat="45.63355" lon="4.53581">
        <ele>649</ele>
        <time>2019-07-29T10:51:40Z</time>
      </trkpt>
      <trkpt lat="45.63325" lon="4.5353">
        <ele>646</ele>
        <time>2019-07-29T10:51:51Z</time>
      </trkpt>
      <trkpt lat="45.63286" lon="4.53517">
        <ele>645</ele>
        <time>2019-07-29T10:52:00Z</time>
      </trkpt>
      <trkpt lat="45.63217" lon="4.53457">
        <ele>640</ele>
        <time>2019-07-29T10:52:19Z</time>
      </trkpt>
      <trkpt lat="45.63127" lon="4.5341">
        <ele>631</ele>
        <time>2019-07-29T10:52:41Z</time>
      </trkpt>
      <trkpt lat="45.63106" lon="4.53354">
        <ele>628</ele>
        <time>2019-07-29T10:52:52Z</time>
      </trkpt>
      <trkpt lat="45.63076" lon="4.53251">
        <ele>620</ele>
        <time>2019-07-29T10:53:10Z</time>
      </trkpt>
      <trkpt lat="45.63016" lon="4.53143">
        <ele>612</ele>
        <time>2019-07-29T10:53:32Z</time>
      </trkpt>
      <trkpt lat="45.62941" lon="4.5292">
        <ele>601</ele>
        <time>2019-07-29T10:54:13Z</time>
      </trkpt>
      <trkpt lat="45.62908" lon="4.5289">
        <ele>599</ele>
        <time>2019-07-29T10:54:22Z</time>
      </trkpt>
      <trkpt lat="45.6286" lon="4.52864">
        <ele>597</ele>
        <time>2019-07-29T10:54:34Z</time>
      </trkpt>
      <trkpt lat="45.62788" lon="4.52877">
        <ele>593</ele>
        <time>2019-07-29T10:54:51Z</time>
      </trkpt>
      <trkpt lat="45.62725" lon="4.52942">
        <ele>589</ele>
        <time>2019-07-29T10:55:09Z</time>
      </trkpt>
      <trkpt lat="45.62668" lon="4.53002">
        <ele>585</ele>
        <time>2019-07-29T10:55:26Z</time>
      </trkpt>
      <trkpt lat="45.6259" lon="4.53006">
        <ele>593</ele>
        <time>2019-07-29T10:55:44Z</time>
      </trkpt>
      <trkpt lat="45.62569" lon="4.5295">
        <ele>598</ele>
        <time>2019-07-29T10:55:54Z</time>
      </trkpt>
      <trkpt lat="45.62509" lon="4.52834">
        <ele>608</ele>
        <time>2019-07-29T10:56:18Z</time>
      </trkpt>
      <trkpt lat="45.62407" lon="4.52779">
        <ele>628</ele>
        <time>2019-07-29T10:56:43Z</time>
      </trkpt>
      <trkpt lat="45.6238" lon="4.52714">
        <ele>633</ele>
        <time>2019-07-29T10:56:56Z</time>
      </trkpt>
      <trkpt lat="45.62263" lon="4.52633">
        <ele>642</ele>
        <time>2019-07-29T10:57:26Z</time>
      </trkpt>
      <trkpt lat="45.62209" lon="4.52607">
        <ele>646</ele>
        <time>2019-07-29T10:57:39Z</time>
      </trkpt>
      <trkpt lat="45.6217" lon="4.52573">
        <ele>649</ele>
        <time>2019-07-29T10:57:50Z</time>
      </trkpt>
      <trkpt lat="45.62158" lon="4.52362">
        <ele>653</ele>
        <time>2019-07-29T10:58:24Z</time>
      </trkpt>
      <trkpt lat="45.6199" lon="4.52174">
        <ele>654</ele>
        <time>2019-07-29T10:59:14Z</time>
      </trkpt>
      <trkpt lat="45.61882" lon="4.52255">
        <ele>664</ele>
        <time>2019-07-29T10:59:43Z</time>
      </trkpt>
      <trkpt lat="45.61723" lon="4.52405">
        <ele>678</ele>
        <time>2019-07-29T11:00:27Z</time>
      </trkpt>
      <trkpt lat="45.61675" lon="4.52349">
        <ele>677</ele>
        <time>2019-07-29T11:00:42Z</time>
      </trkpt>
      <trkpt lat="45.61648" lon="4.52199">
        <ele>674</ele>
        <time>2019-07-29T11:01:07Z</time>
      </trkpt>
      <trkpt lat="45.61627" lon="4.52131">
        <ele>677</ele>
        <time>2019-07-29T11:01:19Z</time>
      </trkpt>
      <trkpt lat="45.61633" lon="4.52045">
        <ele>674</ele>
        <time>2019-07-29T11:01:33Z</time>
      </trkpt>
      <trkpt lat="45.61588" lon="4.51985">
        <ele>679</ele>
        <time>2019-07-29T11:01:48Z</time>
      </trkpt>
      <trkpt lat="45.61477" lon="4.5192">
        <ele>687</ele>
        <time>2019-07-29T11:02:16Z</time>
      </trkpt>
      <trkpt lat="45.61453" lon="4.51869">
        <ele>681</ele>
        <time>2019-07-29T11:02:26Z</time>
      </trkpt>
      <trkpt lat="45.6135" lon="4.51835">
        <ele>680</ele>
        <time>2019-07-29T11:02:50Z</time>
      </trkpt>
      <trkpt lat="45.61393" lon="4.5177">
        <ele>676</ele>
        <time>2019-07-29T11:03:05Z</time>
      </trkpt>
      <trkpt lat="45.61399" lon="4.51719">
        <ele>676</ele>
        <time>2019-07-29T11:03:13Z</time>
      </trkpt>
      <trkpt lat="45.61374" lon="4.51586">
        <ele>687</ele>
        <time>2019-07-29T11:03:36Z</time>
      </trkpt>
      <trkpt lat="45.6145" lon="4.51568">
        <ele>683</ele>
        <time>2019-07-29T11:03:54Z</time>
      </trkpt>
      <trkpt lat="45.61495" lon="4.51598">
        <ele>679</ele>
        <time>2019-07-29T11:04:05Z</time>
      </trkpt>
      <trkpt lat="45.61594" lon="4.51577">
        <ele>675</ele>
        <time>2019-07-29T11:04:29Z</time>
      </trkpt>
      <trkpt lat="45.61606" lon="4.51448">
        <ele>685</ele>
        <time>2019-07-29T11:04:50Z</time>
      </trkpt>
      <trkpt lat="45.61594" lon="4.51375">
        <ele>690</ele>
        <time>2019-07-29T11:05:02Z</time>
      </trkpt>
      <trkpt lat="45.61585" lon="4.51234">
        <ele>691</ele>
        <time>2019-07-29T11:05:26Z</time>
      </trkpt>
      <trkpt lat="45.61573" lon="4.51182">
        <ele>689</ele>
        <time>2019-07-29T11:05:34Z</time>
      </trkpt>
      <trkpt lat="45.61564" lon="4.51036">
        <ele>688</ele>
        <time>2019-07-29T11:05:58Z</time>
      </trkpt>
      <trkpt lat="45.61513" lon="4.50852">
        <ele>682</ele>
        <time>2019-07-29T11:06:31Z</time>
      </trkpt>
      <trkpt lat="45.61471" lon="4.50616">
        <ele>673</ele>
        <time>2019-07-29T11:07:10Z</time>
      </trkpt>
      <trkpt lat="45.61474" lon="4.50461">
        <ele>679</ele>
        <time>2019-07-29T11:07:36Z</time>
      </trkpt>
      <trkpt lat="45.61453" lon="4.50311">
        <ele>682</ele>
        <time>2019-07-29T11:08:01Z</time>
      </trkpt>
      <trkpt lat="45.6145" lon="4.50178">
        <ele>695</ele>
        <time>2019-07-29T11:08:23Z</time>
      </trkpt>
      <trkpt lat="45.6145" lon="4.50096">
        <ele>700</ele>
        <time>2019-07-29T11:08:36Z</time>
      </trkpt>
      <trkpt lat="45.61426" lon="4.50041">
        <ele>699</ele>
        <time>2019-07-29T11:08:47Z</time>
      </trkpt>
      <trkpt lat="45.61374" lon="4.50023">
        <ele>696</ele>
        <time>2019-07-29T11:08:59Z</time>
      </trkpt>
      <trkpt lat="45.61287" lon="4.50062">
        <ele>695</ele>
        <time>2019-07-29T11:09:20Z</time>
      </trkpt>
      <trkpt lat="45.61239" lon="4.50028">
        <ele>692</ele>
        <time>2019-07-29T11:09:33Z</time>
      </trkpt>
      <trkpt lat="45.61155" lon="4.49908">
        <ele>684</ele>
        <time>2019-07-29T11:10:01Z</time>
      </trkpt>
      <trkpt lat="45.61158" lon="4.49817">
        <ele>677</ele>
        <time>2019-07-29T11:10:15Z</time>
      </trkpt>
      <trkpt lat="45.61116" lon="4.49569">
        <ele>656</ele>
        <time>2019-07-29T11:10:57Z</time>
      </trkpt>
      <trkpt lat="45.61089" lon="4.49436">
        <ele>639</ele>
        <time>2019-07-29T11:11:20Z</time>
      </trkpt>
      <trkpt lat="45.61089" lon="4.4932">
        <ele>622</ele>
        <time>2019-07-29T11:11:39Z</time>
      </trkpt>
      <trkpt lat="45.6111" lon="4.49247">
        <ele>615</ele>
        <time>2019-07-29T11:11:52Z</time>
      </trkpt>
      <trkpt lat="45.6108" lon="4.49187">
        <ele>611</ele>
        <time>2019-07-29T11:12:04Z</time>
      </trkpt>
      <trkpt lat="45.61101" lon="4.49109">
        <ele>607</ele>
        <time>2019-07-29T11:12:17Z</time>
      </trkpt>
      <trkpt lat="45.61086" lon="4.49032">
        <ele>605</ele>
        <time>2019-07-29T11:12:30Z</time>
      </trkpt>
      <trkpt lat="45.61092" lon="4.48852">
        <ele>610</ele>
        <time>2019-07-29T11:13:00Z</time>
      </trkpt>
      <trkpt lat="45.61083" lon="4.48788">
        <ele>614</ele>
        <time>2019-07-29T11:13:10Z</time>
      </trkpt>
      <trkpt lat="45.61101" lon="4.48723">
        <ele>619</ele>
        <time>2019-07-29T11:13:22Z</time>
      </trkpt>
      <trkpt lat="45.61146" lon="4.48663">
        <ele>626</ele>
        <time>2019-07-29T11:13:36Z</time>
      </trkpt>
      <trkpt lat="45.61155" lon="4.48573">
        <ele>628</ele>
        <time>2019-07-29T11:13:51Z</time>
      </trkpt>
      <trkpt lat="45.61119" lon="4.48448">
        <ele>625</ele>
        <time>2019-07-29T11:14:13Z</time>
      </trkpt>
      <trkpt lat="45.61086" lon="4.48354">
        <ele>627</ele>
        <time>2019-07-29T11:14:30Z</time>
      </trkpt>
      <trkpt lat="45.61089" lon="4.48251">
        <ele>632</ele>
        <time>2019-07-29T11:14:47Z</time>
      </trkpt>
      <trkpt lat="45.61131" lon="4.48238">
        <ele>629</ele>
        <time>2019-07-29T11:14:57Z</time>
      </trkpt>
      <trkpt lat="45.61233" lon="4.48139">
        <ele>630</ele>
        <time>2019-07-29T11:15:26Z</time>
      </trkpt>
      <trkpt lat="45.61263" lon="4.48079">
        <ele>634</ele>
        <time>2019-07-29T11:15:38Z</time>
      </trkpt>
      <trkpt lat="45.61329" lon="4.48071">
        <ele>633</ele>
        <time>2019-07-29T11:15:54Z</time>
      </trkpt>
      <trkpt lat="45.61332" lon="4.47998">
        <ele>641</ele>
        <time>2019-07-29T11:16:05Z</time>
      </trkpt>
      <trkpt lat="45.61293" lon="4.47934">
        <ele>647</ele>
        <time>2019-07-29T11:16:19Z</time>
      </trkpt>
      <trkpt lat="45.6129" lon="4.47873">
        <ele>650</ele>
        <time>2019-07-29T11:16:29Z</time>
      </trkpt>
      <trkpt lat="45.61338" lon="4.47805">
        <ele>650</ele>
        <time>2019-07-29T11:16:45Z</time>
      </trkpt>
      <trkpt lat="45.6135" lon="4.47723">
        <ele>649</ele>
        <time>2019-07-29T11:16:59Z</time>
      </trkpt>
      <trkpt lat="45.6135" lon="4.47672">
        <ele>650</ele>
        <time>2019-07-29T11:17:07Z</time>
      </trkpt>
      <trkpt lat="45.61323" lon="4.4762">
        <ele>651</ele>
        <time>2019-07-29T11:17:18Z</time>
      </trkpt>
      <trkpt lat="45.61447" lon="4.47436">
        <ele>643</ele>
        <time>2019-07-29T11:17:59Z</time>
      </trkpt>
      <trkpt lat="45.61588" lon="4.47655">
        <ele>628</ele>
        <time>2019-07-29T11:18:48Z</time>
      </trkpt>
      <trkpt lat="45.61681" lon="4.47479">
        <ele>614</ele>
        <time>2019-07-29T11:19:24Z</time>
      </trkpt>
      <trkpt lat="45.61711" lon="4.4738">
        <ele>609</ele>
        <time>2019-07-29T11:19:42Z</time>
      </trkpt>
      <trkpt lat="45.61807" lon="4.47324">
        <ele>599</ele>
        <time>2019-07-29T11:20:06Z</time>
      </trkpt>
      <trkpt lat="45.61849" lon="4.47268">
        <ele>598</ele>
        <time>2019-07-29T11:20:19Z</time>
      </trkpt>
      <trkpt lat="45.61906" lon="4.47251">
        <ele>594</ele>
        <time>2019-07-29T11:20:33Z</time>
      </trkpt>
      <trkpt lat="45.61975" lon="4.47174">
        <ele>592</ele>
        <time>2019-07-29T11:20:53Z</time>
      </trkpt>
      <trkpt lat="45.62011" lon="4.47105">
        <ele>596</ele>
        <time>2019-07-29T11:21:07Z</time>
      </trkpt>
      <trkpt lat="45.62104" lon="4.4714">
        <ele>584</ele>
        <time>2019-07-29T11:21:30Z</time>
      </trkpt>
      <trkpt lat="45.62167" lon="4.47105">
        <ele>578</ele>
        <time>2019-07-29T11:21:46Z</time>
      </trkpt>
      <trkpt lat="45.62263" lon="4.46985">
        <ele>567</ele>
        <time>2019-07-29T11:22:15Z</time>
      </trkpt>
      <trkpt lat="45.62353" lon="4.46912">
        <ele>563</ele>
        <time>2019-07-29T11:22:40Z</time>
      </trkpt>
      <trkpt lat="45.62446" lon="4.46753">
        <ele>561</ele>
        <time>2019-07-29T11:23:13Z</time>
      </trkpt>
      <trkpt lat="45.62494" lon="4.46783">
        <ele>554</ele>
        <time>2019-07-29T11:23:26Z</time>
      </trkpt>
      <trkpt lat="45.62539" lon="4.46822">
        <ele>549</ele>
        <time>2019-07-29T11:23:38Z</time>
      </trkpt>
      <trkpt lat="45.62584" lon="4.46822">
        <ele>546</ele>
        <time>2019-07-29T11:23:49Z</time>
      </trkpt>
      <trkpt lat="45.62635" lon="4.46801">
        <ele>542</ele>
        <time>2019-07-29T11:24:01Z</time>
      </trkpt>
      <trkpt lat="45.62686" lon="4.46809">
        <ele>535</ele>
        <time>2019-07-29T11:24:13Z</time>
      </trkpt>
      <trkpt lat="45.62722" lon="4.46822">
        <ele>527</ele>
        <time>2019-07-29T11:24:22Z</time>
      </trkpt>
      <trkpt lat="45.62689" lon="4.46861">
        <ele>529</ele>
        <time>2019-07-29T11:24:32Z</time>
      </trkpt>
      <trkpt lat="45.62692" lon="4.46951">
        <ele>526</ele>
        <time>2019-07-29T11:24:46Z</time>
      </trkpt>
      <trkpt lat="45.62647" lon="4.46994">
        <ele>525</ele>
        <time>2019-07-29T11:24:59Z</time>
      </trkpt>
      <trkpt lat="45.62668" lon="4.47071">
        <ele>528</ele>
        <time>2019-07-29T11:25:12Z</time>
      </trkpt>
      <trkpt lat="45.62617" lon="4.47122">
        <ele>527</ele>
        <time>2019-07-29T11:25:27Z</time>
      </trkpt>
      <trkpt lat="45.62635" lon="4.47225">
        <ele>532</ele>
        <time>2019-07-29T11:25:44Z</time>
      </trkpt>
      <trkpt lat="45.62635" lon="4.47225">
        <ele>532</ele>
        <time>2019-07-29T11:25:44Z</time>
      </trkpt>
      <trkpt lat="45.62662" lon="4.47193">
        <ele>533</ele>
        <time>2019-07-29T11:25:52Z</time>
      </trkpt>
      <trkpt lat="45.62639" lon="4.4727">
        <ele>535</ele>
        <time>2019-07-29T11:26:06Z</time>
      </trkpt>
      <trkpt lat="45.62653" lon="4.47343">
        <ele>543</ele>
        <time>2019-07-29T11:26:19Z</time>
      </trkpt>
      <trkpt lat="45.62695" lon="4.47451">
        <ele>555</ele>
        <time>2019-07-29T11:26:39Z</time>
      </trkpt>
      <trkpt lat="45.62741" lon="4.47631">
        <ele>566</ele>
        <time>2019-07-29T11:27:10Z</time>
      </trkpt>
      <trkpt lat="45.62852" lon="4.47678">
        <ele>569</ele>
        <time>2019-07-29T11:27:37Z</time>
      </trkpt>
      <trkpt lat="45.62864" lon="4.47479">
        <ele>556</ele>
        <time>2019-07-29T11:28:10Z</time>
      </trkpt>
      <trkpt lat="45.62881" lon="4.47431">
        <ele>553</ele>
        <time>2019-07-29T11:28:18Z</time>
      </trkpt>
      <trkpt lat="45.62905" lon="4.47414">
        <ele>555</ele>
        <time>2019-07-29T11:28:25Z</time>
      </trkpt>
      <trkpt lat="45.62939" lon="4.47309">
        <ele>555</ele>
        <time>2019-07-29T11:28:44Z</time>
      </trkpt>
      <trkpt lat="45.62933" lon="4.47249">
        <ele>558</ele>
        <time>2019-07-29T11:28:53Z</time>
      </trkpt>
      <trkpt lat="45.62911" lon="4.4721">
        <ele>561</ele>
        <time>2019-07-29T11:29:02Z</time>
      </trkpt>
      <trkpt lat="45.62932" lon="4.47105">
        <ele>567</ele>
        <time>2019-07-29T11:29:20Z</time>
      </trkpt>
      <trkpt lat="45.62986" lon="4.47007">
        <ele>565</ele>
        <time>2019-07-29T11:29:40Z</time>
      </trkpt>
      <trkpt lat="45.631" lon="4.47026">
        <ele>575</ele>
        <time>2019-07-29T11:30:07Z</time>
      </trkpt>
      <trkpt lat="45.63361" lon="4.4688">
        <ele>569</ele>
        <time>2019-07-29T11:31:12Z</time>
      </trkpt>
      <trkpt lat="45.63439" lon="4.46828">
        <ele>565</ele>
        <time>2019-07-29T11:31:32Z</time>
      </trkpt>
      <trkpt lat="45.63505" lon="4.46766">
        <ele>564</ele>
        <time>2019-07-29T11:31:51Z</time>
      </trkpt>
      <trkpt lat="45.63502" lon="4.4673">
        <ele>564</ele>
        <time>2019-07-29T11:31:57Z</time>
      </trkpt>
      <trkpt lat="45.63479" lon="4.46683">
        <ele>566</ele>
        <time>2019-07-29T11:32:06Z</time>
      </trkpt>
      <trkpt lat="45.6347" lon="4.46635">
        <ele>569</ele>
        <time>2019-07-29T11:32:14Z</time>
      </trkpt>
      <trkpt lat="45.63509" lon="4.46429">
        <ele>583</ele>
        <time>2019-07-29T11:32:49Z</time>
      </trkpt>
      <trkpt lat="45.63509" lon="4.46378">
        <ele>589</ele>
        <time>2019-07-29T11:32:57Z</time>
      </trkpt>
      <trkpt lat="45.63539" lon="4.46271">
        <ele>594</ele>
        <time>2019-07-29T11:33:16Z</time>
      </trkpt>
      <trkpt lat="45.63542" lon="4.46234">
        <ele>597</ele>
        <time>2019-07-29T11:33:22Z</time>
      </trkpt>
      <trkpt lat="45.63581" lon="4.46238">
        <ele>592</ele>
        <time>2019-07-29T11:33:31Z</time>
      </trkpt>
      <trkpt lat="45.63652" lon="4.4614">
        <ele>596</ele>
        <time>2019-07-29T11:33:54Z</time>
      </trkpt>
      <trkpt lat="45.63712" lon="4.4623">
        <ele>594</ele>
        <time>2019-07-29T11:34:15Z</time>
      </trkpt>
      <trkpt lat="45.63713" lon="4.46198">
        <ele>596</ele>
        <time>2019-07-29T11:34:20Z</time>
      </trkpt>
      <trkpt lat="45.637" lon="4.46131">
        <ele>599</ele>
        <time>2019-07-29T11:34:31Z</time>
      </trkpt>
      <trkpt lat="45.63698" lon="4.45983">
        <ele>600</ele>
        <time>2019-07-29T11:34:55Z</time>
      </trkpt>
      <trkpt lat="45.63774" lon="4.45949">
        <ele>607</ele>
        <time>2019-07-29T11:35:14Z</time>
      </trkpt>
      <trkpt lat="45.63774" lon="4.45949">
        <ele>607</ele>
        <time>2019-07-29T11:35:14Z</time>
      </trkpt>
      <trkpt lat="45.63823" lon="4.45942">
        <ele>612</ele>
        <time>2019-07-29T11:35:26Z</time>
      </trkpt>
      <trkpt lat="45.63867" lon="4.45925">
        <ele>616</ele>
        <time>2019-07-29T11:35:36Z</time>
      </trkpt>
      <trkpt lat="45.63957" lon="4.45938">
        <ele>622</ele>
        <time>2019-07-29T11:35:57Z</time>
      </trkpt>
      <trkpt lat="45.64044" lon="4.45878">
        <ele>621</ele>
        <time>2019-07-29T11:36:20Z</time>
      </trkpt>
      <trkpt lat="45.64081" lon="4.45844">
        <ele>619</ele>
        <time>2019-07-29T11:36:30Z</time>
      </trkpt>
      <trkpt lat="45.64174" lon="4.45786">
        <ele>618</ele>
        <time>2019-07-29T11:36:54Z</time>
      </trkpt>
      <trkpt lat="45.64239" lon="4.45764">
        <ele>618</ele>
        <time>2019-07-29T11:37:09Z</time>
      </trkpt>
      <trkpt lat="45.64339" lon="4.45674">
        <ele>612</ele>
        <time>2019-07-29T11:37:37Z</time>
      </trkpt>
      <trkpt lat="45.64408" lon="4.45672">
        <ele>608</ele>
        <time>2019-07-29T11:37:53Z</time>
      </trkpt>
      <trkpt lat="45.64485" lon="4.45704">
        <ele>608</ele>
        <time>2019-07-29T11:38:12Z</time>
      </trkpt>
      <trkpt lat="45.64497" lon="4.45747">
        <ele>609</ele>
        <time>2019-07-29T11:38:19Z</time>
      </trkpt>
      <trkpt lat="45.6447" lon="4.45813">
        <ele>615</ele>
        <time>2019-07-29T11:38:32Z</time>
      </trkpt>
      <trkpt lat="45.64468" lon="4.45906">
        <ele>619</ele>
        <time>2019-07-29T11:38:47Z</time>
      </trkpt>
      <trkpt lat="45.64357" lon="4.45908">
        <ele>628</ele>
        <time>2019-07-29T11:39:13Z</time>
      </trkpt>
      <trkpt lat="45.64357" lon="4.45953">
        <ele>631</ele>
        <time>2019-07-29T11:39:20Z</time>
      </trkpt>
      <trkpt lat="45.64311" lon="4.46137">
        <ele>635</ele>
        <time>2019-07-29T11:39:52Z</time>
      </trkpt>
      <trkpt lat="45.64342" lon="4.46146">
        <ele>637</ele>
        <time>2019-07-29T11:40:00Z</time>
      </trkpt>
      <trkpt lat="45.64434" lon="4.46129">
        <ele>640</ele>
        <time>2019-07-29T11:40:21Z</time>
      </trkpt>
      <trkpt lat="45.64512" lon="4.46146">
        <ele>640</ele>
        <time>2019-07-29T11:40:40Z</time>
      </trkpt>
      <trkpt lat="45.64582" lon="4.46142">
        <ele>636</ele>
        <time>2019-07-29T11:40:56Z</time>
      </trkpt>
      <trkpt lat="45.64654" lon="4.46185">
        <ele>636</ele>
        <time>2019-07-29T11:41:14Z</time>
      </trkpt>
      <trkpt lat="45.64848" lon="4.46367">
        <ele>633</ele>
        <time>2019-07-29T11:42:08Z</time>
      </trkpt>
      <trkpt lat="45.64881" lon="4.46442">
        <ele>634</ele>
        <time>2019-07-29T11:42:23Z</time>
      </trkpt>
      <trkpt lat="45.64909" lon="4.46442">
        <ele>632</ele>
        <time>2019-07-29T11:42:29Z</time>
      </trkpt>
      <trkpt lat="45.64938" lon="4.46442">
        <ele>630</ele>
        <time>2019-07-29T11:42:36Z</time>
      </trkpt>
      <trkpt lat="45.64969" lon="4.46466">
        <ele>629</ele>
        <time>2019-07-29T11:42:44Z</time>
      </trkpt>
      <trkpt lat="45.64999" lon="4.46515">
        <ele>633</ele>
        <time>2019-07-29T11:42:55Z</time>
      </trkpt>
      <trkpt lat="45.65032" lon="4.46545">
        <ele>630</ele>
        <time>2019-07-29T11:43:04Z</time>
      </trkpt>
      <trkpt lat="45.651" lon="4.46556">
        <ele>620</ele>
        <time>2019-07-29T11:43:20Z</time>
      </trkpt>
      <trkpt lat="45.65131" lon="4.46607">
        <ele>621</ele>
        <time>2019-07-29T11:43:31Z</time>
      </trkpt>
      <trkpt lat="45.65182" lon="4.46627">
        <ele>621</ele>
        <time>2019-07-29T11:43:44Z</time>
      </trkpt>
      <trkpt lat="45.65251" lon="4.4668">
        <ele>622</ele>
        <time>2019-07-29T11:44:02Z</time>
      </trkpt>
      <trkpt lat="45.65308" lon="4.46755">
        <ele>626</ele>
        <time>2019-07-29T11:44:20Z</time>
      </trkpt>
      <trkpt lat="45.65364" lon="4.46779">
        <ele>628</ele>
        <time>2019-07-29T11:44:34Z</time>
      </trkpt>
      <trkpt lat="45.65425" lon="4.46792">
        <ele>628</ele>
        <time>2019-07-29T11:44:48Z</time>
      </trkpt>
      <trkpt lat="45.65479" lon="4.46833">
        <ele>631</ele>
        <time>2019-07-29T11:45:02Z</time>
      </trkpt>
      <trkpt lat="45.65521" lon="4.46889">
        <ele>634</ele>
        <time>2019-07-29T11:45:16Z</time>
      </trkpt>
      <trkpt lat="45.65589" lon="4.46921">
        <ele>639</ele>
        <time>2019-07-29T11:45:32Z</time>
      </trkpt>
      <trkpt lat="45.65629" lon="4.46992">
        <ele>639</ele>
        <time>2019-07-29T11:45:47Z</time>
      </trkpt>
      <trkpt lat="45.65661" lon="4.47011">
        <ele>640</ele>
        <time>2019-07-29T11:45:55Z</time>
      </trkpt>
      <trkpt lat="45.65736" lon="4.46974">
        <ele>641</ele>
        <time>2019-07-29T11:46:14Z</time>
      </trkpt>
      <trkpt lat="45.65766" lon="4.47">
        <ele>640</ele>
        <time>2019-07-29T11:46:22Z</time>
      </trkpt>
      <trkpt lat="45.65796" lon="4.47073">
        <ele>641</ele>
        <time>2019-07-29T11:46:36Z</time>
      </trkpt>
      <trkpt lat="45.65853" lon="4.47095">
        <ele>648</ele>
        <time>2019-07-29T11:46:50Z</time>
      </trkpt>
      <trkpt lat="45.65913" lon="4.47135">
        <ele>658</ele>
        <time>2019-07-29T11:47:05Z</time>
      </trkpt>
      <trkpt lat="45.65928" lon="4.47182">
        <ele>662</ele>
        <time>2019-07-29T11:47:14Z</time>
      </trkpt>
      <trkpt lat="45.65965" lon="4.47204">
        <ele>663</ele>
        <time>2019-07-29T11:47:23Z</time>
      </trkpt>
      <trkpt lat="45.66034" lon="4.47204">
        <ele>664</ele>
        <time>2019-07-29T11:47:39Z</time>
      </trkpt>
      <trkpt lat="45.66055" lon="4.47225">
        <ele>666</ele>
        <time>2019-07-29T11:47:45Z</time>
      </trkpt>
      <trkpt lat="45.66076" lon="4.47247">
        <ele>669</ele>
        <time>2019-07-29T11:47:51Z</time>
      </trkpt>
      <trkpt lat="45.66076" lon="4.47279">
        <ele>670</ele>
        <time>2019-07-29T11:47:56Z</time>
      </trkpt>
      <trkpt lat="45.66127" lon="4.47356">
        <ele>677</ele>
        <time>2019-07-29T11:48:14Z</time>
      </trkpt>
      <trkpt lat="45.66166" lon="4.47326">
        <ele>678</ele>
        <time>2019-07-29T11:48:24Z</time>
      </trkpt>
      <trkpt lat="45.66223" lon="4.47356">
        <ele>681</ele>
        <time>2019-07-29T11:48:38Z</time>
      </trkpt>
      <trkpt lat="45.66292" lon="4.47395">
        <ele>683</ele>
        <time>2019-07-29T11:48:56Z</time>
      </trkpt>
      <trkpt lat="45.66328" lon="4.47429">
        <ele>684</ele>
        <time>2019-07-29T11:49:06Z</time>
      </trkpt>
      <trkpt lat="45.66307" lon="4.47491">
        <ele>689</ele>
        <time>2019-07-29T11:49:17Z</time>
      </trkpt>
      <trkpt lat="45.66286" lon="4.47519">
        <ele>690</ele>
        <time>2019-07-29T11:49:24Z</time>
      </trkpt>
      <trkpt lat="45.66226" lon="4.47858">
        <ele>678</ele>
        <time>2019-07-29T11:50:21Z</time>
      </trkpt>
      <trkpt lat="45.66176" lon="4.48082">
        <ele>665</ele>
        <time>2019-07-29T11:50:59Z</time>
      </trkpt>
      <trkpt lat="45.66173" lon="4.48185">
        <ele>665</ele>
        <time>2019-07-29T11:51:16Z</time>
      </trkpt>
      <trkpt lat="45.66196" lon="4.48247">
        <ele>667</ele>
        <time>2019-07-29T11:51:27Z</time>
      </trkpt>
      <trkpt lat="45.6622" lon="4.48277">
        <ele>669</ele>
        <time>2019-07-29T11:51:35Z</time>
      </trkpt>
      <trkpt lat="45.66238" lon="4.4838">
        <ele>668</ele>
        <time>2019-07-29T11:51:52Z</time>
      </trkpt>
      <trkpt lat="45.66214" lon="4.48418">
        <ele>665</ele>
        <time>2019-07-29T11:52:00Z</time>
      </trkpt>
      <trkpt lat="45.66208" lon="4.48453">
        <ele>666</ele>
        <time>2019-07-29T11:52:06Z</time>
      </trkpt>
      <trkpt lat="45.66226" lon="4.48481">
        <ele>668</ele>
        <time>2019-07-29T11:52:13Z</time>
      </trkpt>
      <trkpt lat="45.6619" lon="4.48534">
        <ele>668</ele>
        <time>2019-07-29T11:52:25Z</time>
      </trkpt>
      <trkpt lat="45.66127" lon="4.48543">
        <ele>673</ele>
        <time>2019-07-29T11:52:39Z</time>
      </trkpt>
      <trkpt lat="45.66121" lon="4.4859">
        <ele>678</ele>
        <time>2019-07-29T11:52:47Z</time>
      </trkpt>
      <trkpt lat="45.66094" lon="4.48637">
        <ele>686</ele>
        <time>2019-07-29T11:52:57Z</time>
      </trkpt>
      <trkpt lat="45.66095" lon="4.48687">
        <ele>690</ele>
        <time>2019-07-29T11:53:05Z</time>
      </trkpt>
      <trkpt lat="45.66067" lon="4.48775">
        <ele>697</ele>
        <time>2019-07-29T11:53:21Z</time>
      </trkpt>
      <trkpt lat="45.6607" lon="4.48809">
        <ele>700</ele>
        <time>2019-07-29T11:53:27Z</time>
      </trkpt>
      <trkpt lat="45.66051" lon="4.4886">
        <ele>703</ele>
        <time>2019-07-29T11:53:36Z</time>
      </trkpt>
      <trkpt lat="45.66009" lon="4.48927">
        <ele>710</ele>
        <time>2019-07-29T11:53:51Z</time>
      </trkpt>
      <trkpt lat="45.65991" lon="4.49011">
        <ele>719</ele>
        <time>2019-07-29T11:54:05Z</time>
      </trkpt>
      <trkpt lat="45.65764" lon="4.49066">
        <ele>713</ele>
        <time>2019-07-29T11:54:59Z</time>
      </trkpt>
      <trkpt lat="45.65766" lon="4.49092">
        <ele>714</ele>
        <time>2019-07-29T11:55:03Z</time>
      </trkpt>
      <trkpt lat="45.65788" lon="4.49097">
        <ele>716</ele>
        <time>2019-07-29T11:55:08Z</time>
      </trkpt>
      <trkpt lat="45.65808" lon="4.4912">
        <ele>717</ele>
        <time>2019-07-29T11:55:14Z</time>
      </trkpt>
      <trkpt lat="45.65826" lon="4.49124">
        <ele>719</ele>
        <time>2019-07-29T11:55:19Z</time>
      </trkpt>
      <trkpt lat="45.65904" lon="4.4918">
        <ele>722</ele>
        <time>2019-07-29T11:55:39Z</time>
      </trkpt>
      <trkpt lat="45.65991" lon="4.49272">
        <ele>722</ele>
        <time>2019-07-29T11:56:04Z</time>
      </trkpt>
      <trkpt lat="45.66003" lon="4.49339">
        <ele>721</ele>
        <time>2019-07-29T11:56:16Z</time>
      </trkpt>
      <trkpt lat="45.66091" lon="4.495">
        <ele>730</ele>
        <time>2019-07-29T11:56:49Z</time>
      </trkpt>
      <trkpt lat="45.66107" lon="4.49588">
        <ele>739</ele>
        <time>2019-07-29T11:57:04Z</time>
      </trkpt>
      <trkpt lat="45.66148" lon="4.49654">
        <ele>749</ele>
        <time>2019-07-29T11:57:18Z</time>
      </trkpt>
      <trkpt lat="45.6616" lon="4.49835">
        <ele>760</ele>
        <time>2019-07-29T11:57:48Z</time>
      </trkpt>
      <trkpt lat="45.66116" lon="4.49905">
        <ele>763</ele>
        <time>2019-07-29T11:58:03Z</time>
      </trkpt>
      <trkpt lat="45.66174" lon="4.49894">
        <ele>764</ele>
        <time>2019-07-29T11:58:17Z</time>
      </trkpt>
      <trkpt lat="45.66232" lon="4.50004">
        <ele>765</ele>
        <time>2019-07-29T11:58:39Z</time>
      </trkpt>
      <trkpt lat="45.66313" lon="4.50066">
        <ele>767</ele>
        <time>2019-07-29T11:59:01Z</time>
      </trkpt>
      <trkpt lat="45.66334" lon="4.50091">
        <ele>768</ele>
        <time>2019-07-29T11:59:07Z</time>
      </trkpt>
      <trkpt lat="45.66416" lon="4.5022">
        <ele>777</ele>
        <time>2019-07-29T11:59:36Z</time>
      </trkpt>
      <trkpt lat="45.66435" lon="4.50242">
        <ele>780</ele>
        <time>2019-07-29T11:59:41Z</time>
      </trkpt>
      <trkpt lat="45.66448" lon="4.50258">
        <ele>782</ele>
        <time>2019-07-29T11:59:45Z</time>
      </trkpt>
      <trkpt lat="45.66482" lon="4.50335">
        <ele>794</ele>
        <time>2019-07-29T12:00:00Z</time>
      </trkpt>
      <trkpt lat="45.66503" lon="4.50368">
        <ele>799</ele>
        <time>2019-07-29T12:00:07Z</time>
      </trkpt>
      <trkpt lat="45.6652" lon="4.50375">
        <ele>803</ele>
        <time>2019-07-29T12:00:12Z</time>
      </trkpt>
      <trkpt lat="45.66567" lon="4.50367">
        <ele>808</ele>
        <time>2019-07-29T12:00:23Z</time>
      </trkpt>
      <trkpt lat="45.66595" lon="4.50349">
        <ele>809</ele>
        <time>2019-07-29T12:00:30Z</time>
      </trkpt>
      <trkpt lat="45.66609" lon="4.50344">
        <ele>810</ele>
        <time>2019-07-29T12:00:33Z</time>
      </trkpt>
      <trkpt lat="45.66627" lon="4.50355">
        <ele>812</ele>
        <time>2019-07-29T12:00:38Z</time>
      </trkpt>
      <trkpt lat="45.66649" lon="4.50395">
        <ele>816</ele>
        <time>2019-07-29T12:00:46Z</time>
      </trkpt>
      <trkpt lat="45.66667" lon="4.50445">
        <ele>822</ele>
        <time>2019-07-29T12:00:55Z</time>
      </trkpt>
      <trkpt lat="45.66705" lon="4.50485">
        <ele>822</ele>
        <time>2019-07-29T12:01:06Z</time>
      </trkpt>
      <trkpt lat="45.66752" lon="4.5055">
        <ele>826</ele>
        <time>2019-07-29T12:01:22Z</time>
      </trkpt>
      <trkpt lat="45.66767" lon="4.5058">
        <ele>830</ele>
        <time>2019-07-29T12:01:28Z</time>
      </trkpt>
      <trkpt lat="45.66808" lon="4.50645">
        <ele>838</ele>
        <time>2019-07-29T12:01:42Z</time>
      </trkpt>
      <trkpt lat="45.66816" lon="4.50673">
        <ele>841</ele>
        <time>2019-07-29T12:01:47Z</time>
      </trkpt>
      <trkpt lat="45.66831" lon="4.50677">
        <ele>840</ele>
        <time>2019-07-29T12:01:50Z</time>
      </trkpt>
      <trkpt lat="45.66849" lon="4.50683">
        <ele>843</ele>
        <time>2019-07-29T12:01:55Z</time>
      </trkpt>
      <trkpt lat="45.66877" lon="4.50688">
        <ele>847</ele>
        <time>2019-07-29T12:02:01Z</time>
      </trkpt>
      <trkpt lat="45.66903" lon="4.50699">
        <ele>850</ele>
        <time>2019-07-29T12:02:08Z</time>
      </trkpt>
      <trkpt lat="45.66901" lon="4.5071">
        <ele>850</ele>
        <time>2019-07-29T12:02:09Z</time>
      </trkpt>
      <trkpt lat="45.6691" lon="4.5074">
        <ele>852</ele>
        <time>2019-07-29T12:02:15Z</time>
      </trkpt>
      <trkpt lat="45.66913" lon="4.5078">
        <ele>852</ele>
        <time>2019-07-29T12:02:21Z</time>
      </trkpt>
      <trkpt lat="45.66919" lon="4.50832">
        <ele>853</ele>
        <time>2019-07-29T12:02:30Z</time>
      </trkpt>
      <trkpt lat="45.66859" lon="4.50899">
        <ele>855</ele>
        <time>2019-07-29T12:02:48Z</time>
      </trkpt>
      <trkpt lat="45.6685" lon="4.50923">
        <ele>855</ele>
        <time>2019-07-29T12:02:52Z</time>
      </trkpt>
      <trkpt lat="45.66754" lon="4.51114">
        <ele>844</ele>
        <time>2019-07-29T12:03:31Z</time>
      </trkpt>
      <trkpt lat="45.66745" lon="4.51185">
        <ele>841</ele>
        <time>2019-07-29T12:03:42Z</time>
      </trkpt>
      <trkpt lat="45.66739" lon="4.51203">
        <ele>839</ele>
        <time>2019-07-29T12:03:46Z</time>
      </trkpt>
      <trkpt lat="45.66687" lon="4.51257">
        <ele>827</ele>
        <time>2019-07-29T12:04:01Z</time>
      </trkpt>
      <trkpt lat="45.66673" lon="4.51259">
        <ele>823</ele>
        <time>2019-07-29T12:04:04Z</time>
      </trkpt>
      <trkpt lat="45.66654" lon="4.51241">
        <ele>821</ele>
        <time>2019-07-29T12:04:09Z</time>
      </trkpt>
      <trkpt lat="45.66644" lon="4.51274">
        <ele>816</ele>
        <time>2019-07-29T12:04:15Z</time>
      </trkpt>
      <trkpt lat="45.66643" lon="4.51327">
        <ele>811</ele>
        <time>2019-07-29T12:04:24Z</time>
      </trkpt>
      <trkpt lat="45.66673" lon="4.51403">
        <ele>806</ele>
        <time>2019-07-29T12:04:38Z</time>
      </trkpt>
      <trkpt lat="45.66706" lon="4.51488">
        <ele>798</ele>
        <time>2019-07-29T12:04:54Z</time>
      </trkpt>
      <trkpt lat="45.66721" lon="4.51499">
        <ele>797</ele>
        <time>2019-07-29T12:04:58Z</time>
      </trkpt>
      <trkpt lat="45.6675" lon="4.51508">
        <ele>797</ele>
        <time>2019-07-29T12:05:05Z</time>
      </trkpt>
      <trkpt lat="45.66707" lon="4.51534">
        <ele>792</ele>
        <time>2019-07-29T12:05:16Z</time>
      </trkpt>
      <trkpt lat="45.66753" lon="4.51541">
        <ele>792</ele>
        <time>2019-07-29T12:05:26Z</time>
      </trkpt>
      <trkpt lat="45.66731" lon="4.51635">
        <ele>779</ele>
        <time>2019-07-29T12:05:43Z</time>
      </trkpt>
      <trkpt lat="45.66671" lon="4.51725">
        <ele>771</ele>
        <time>2019-07-29T12:06:03Z</time>
      </trkpt>
      <trkpt lat="45.66744" lon="4.51854">
        <ele>758</ele>
        <time>2019-07-29T12:06:30Z</time>
      </trkpt>
      <trkpt lat="45.66767" lon="4.51935">
        <ele>754</ele>
        <time>2019-07-29T12:06:44Z</time>
      </trkpt>
      <trkpt lat="45.66776" lon="4.52008">
        <ele>752</ele>
        <time>2019-07-29T12:06:56Z</time>
      </trkpt>
      <trkpt lat="45.66821" lon="4.52113">
        <ele>747</ele>
        <time>2019-07-29T12:07:16Z</time>
      </trkpt>
      <trkpt lat="45.66818" lon="4.52176">
        <ele>749</ele>
        <time>2019-07-29T12:07:27Z</time>
      </trkpt>
      <trkpt lat="45.66852" lon="4.52246">
        <ele>746</ele>
        <time>2019-07-29T12:07:41Z</time>
      </trkpt>
      <trkpt lat="45.66902" lon="4.52296">
        <ele>739</ele>
        <time>2019-07-29T12:07:55Z</time>
      </trkpt>
      <trkpt lat="45.66929" lon="4.52311">
        <ele>737</ele>
        <time>2019-07-29T12:08:02Z</time>
      </trkpt>
      <trkpt lat="45.67026" lon="4.52365">
        <ele>730</ele>
        <time>2019-07-29T12:08:26Z</time>
      </trkpt>
      <trkpt lat="45.67079" lon="4.52343">
        <ele>729</ele>
        <time>2019-07-29T12:08:39Z</time>
      </trkpt>
      <trkpt lat="45.6714" lon="4.52427">
        <ele>729</ele>
        <time>2019-07-29T12:08:59Z</time>
      </trkpt>
      <trkpt lat="45.67174" lon="4.52442">
        <ele>729</ele>
        <time>2019-07-29T12:09:07Z</time>
      </trkpt>
      <trkpt lat="45.67212" lon="4.52435">
        <ele>728</ele>
        <time>2019-07-29T12:09:16Z</time>
      </trkpt>
      <trkpt lat="45.67233" lon="4.52502">
        <ele>728</ele>
        <time>2019-07-29T12:09:28Z</time>
      </trkpt>
      <trkpt lat="45.67254" lon="4.52528">
        <ele>731</ele>
        <time>2019-07-29T12:09:34Z</time>
      </trkpt>
      <trkpt lat="45.67199" lon="4.5259">
        <ele>733</ele>
        <time>2019-07-29T12:09:51Z</time>
      </trkpt>
      <trkpt lat="45.67056" lon="4.52508">
        <ele>739</ele>
        <time>2019-07-29T12:10:27Z</time>
      </trkpt>
      <trkpt lat="45.67029" lon="4.52547">
        <ele>744</ele>
        <time>2019-07-29T12:10:36Z</time>
      </trkpt>
      <trkpt lat="45.6677" lon="4.52577">
        <ele>758</ele>
        <time>2019-07-29T12:11:36Z</time>
      </trkpt>
      <trkpt lat="45.66611" lon="4.52646">
        <ele>765</ele>
        <time>2019-07-29T12:12:15Z</time>
      </trkpt>
      <trkpt lat="45.66444" lon="4.52789">
        <ele>770</ele>
        <time>2019-07-29T12:13:01Z</time>
      </trkpt>
      <trkpt lat="45.66444" lon="4.52929">
        <ele>765</ele>
        <time>2019-07-29T12:13:23Z</time>
      </trkpt>
      <trkpt lat="45.66425" lon="4.53023">
        <ele>760</ele>
        <time>2019-07-29T12:13:39Z</time>
      </trkpt>
      <trkpt lat="45.66455" lon="4.53113">
        <ele>751</ele>
        <time>2019-07-29T12:13:56Z</time>
      </trkpt>
      <trkpt lat="45.66411" lon="4.53195">
        <ele>745</ele>
        <time>2019-07-29T12:14:13Z</time>
      </trkpt>
      <trkpt lat="45.66426" lon="4.53253">
        <ele>738</ele>
        <time>2019-07-29T12:14:23Z</time>
      </trkpt>
      <trkpt lat="45.6645" lon="4.53291">
        <ele>734</ele>
        <time>2019-07-29T12:14:31Z</time>
      </trkpt>
      <trkpt lat="45.66374" lon="4.53304">
        <ele>731</ele>
        <time>2019-07-29T12:14:49Z</time>
      </trkpt>
      <trkpt lat="45.6633" lon="4.53285">
        <ele>731</ele>
        <time>2019-07-29T12:15:00Z</time>
      </trkpt>
      <trkpt lat="45.66327" lon="4.53407">
        <ele>720</ele>
        <time>2019-07-29T12:15:20Z</time>
      </trkpt>
      <trkpt lat="45.66332" lon="4.53543">
        <ele>718</ele>
        <time>2019-07-29T12:15:42Z</time>
      </trkpt>
      <trkpt lat="45.66363" lon="4.53766">
        <ele>727</ele>
        <time>2019-07-29T12:16:19Z</time>
      </trkpt>
      <trkpt lat="45.66398" lon="4.53864">
        <ele>727</ele>
        <time>2019-07-29T12:16:37Z</time>
      </trkpt>
      <trkpt lat="45.66437" lon="4.5397">
        <ele>722</ele>
        <time>2019-07-29T12:16:56Z</time>
      </trkpt>
      <trkpt lat="45.66455" lon="4.54098">
        <ele>709</ele>
        <time>2019-07-29T12:17:18Z</time>
      </trkpt>
      <trkpt lat="45.66462" lon="4.54203">
        <ele>698</ele>
        <time>2019-07-29T12:17:35Z</time>
      </trkpt>
      <trkpt lat="45.66483" lon="4.54377">
        <ele>679</ele>
        <time>2019-07-29T12:18:04Z</time>
      </trkpt>
      <trkpt lat="45.66474" lon="4.54444">
        <ele>673</ele>
        <time>2019-07-29T12:18:15Z</time>
      </trkpt>
      <trkpt lat="45.66419" lon="4.54435">
        <ele>674</ele>
        <time>2019-07-29T12:18:28Z</time>
      </trkpt>
      <trkpt lat="45.66377" lon="4.54401">
        <ele>675</ele>
        <time>2019-07-29T12:18:39Z</time>
      </trkpt>
      <trkpt lat="45.66252" lon="4.54375">
        <ele>666</ele>
        <time>2019-07-29T12:19:09Z</time>
      </trkpt>
      <trkpt lat="45.66207" lon="4.54371">
        <ele>662</ele>
        <time>2019-07-29T12:19:19Z</time>
      </trkpt>
      <trkpt lat="45.66197" lon="4.54341">
        <ele>663</ele>
        <time>2019-07-29T12:19:25Z</time>
      </trkpt>
      <trkpt lat="45.66174" lon="4.54321">
        <ele>661</ele>
        <time>2019-07-29T12:19:31Z</time>
      </trkpt>
      <trkpt lat="45.66176" lon="4.54274">
        <ele>662</ele>
        <time>2019-07-29T12:19:38Z</time>
      </trkpt>
      <trkpt lat="45.66137" lon="4.54167">
        <ele>663</ele>
        <time>2019-07-29T12:19:58Z</time>
      </trkpt>
      <trkpt lat="45.6607" lon="4.54">
        <ele>661</ele>
        <time>2019-07-29T12:20:30Z</time>
      </trkpt>
      <trkpt lat="45.66068" lon="4.53957">
        <ele>663</ele>
        <time>2019-07-29T12:20:37Z</time>
      </trkpt>
      <trkpt lat="45.66086" lon="4.53828">
        <ele>673</ele>
        <time>2019-07-29T12:20:58Z</time>
      </trkpt>
      <trkpt lat="45.6608" lon="4.538">
        <ele>678</ele>
        <time>2019-07-29T12:21:03Z</time>
      </trkpt>
      <trkpt lat="45.66056" lon="4.53796">
        <ele>678</ele>
        <time>2019-07-29T12:21:09Z</time>
      </trkpt>
      <trkpt lat="45.65941" lon="4.53824">
        <ele>674</ele>
        <time>2019-07-29T12:21:36Z</time>
      </trkpt>
      <trkpt lat="45.65902" lon="4.53918">
        <ele>667</ele>
        <time>2019-07-29T12:21:54Z</time>
      </trkpt>
      <trkpt lat="45.65825" lon="4.54004">
        <ele>660</ele>
        <time>2019-07-29T12:22:16Z</time>
      </trkpt>
      <trkpt lat="45.6586" lon="4.54227">
        <ele>640</ele>
        <time>2019-07-29T12:22:54Z</time>
      </trkpt>
      <trkpt lat="45.65857" lon="4.54306">
        <ele>633</ele>
        <time>2019-07-29T12:23:07Z</time>
      </trkpt>
      <trkpt lat="45.65824" lon="4.54379">
        <ele>627</ele>
        <time>2019-07-29T12:23:21Z</time>
      </trkpt>
      <trkpt lat="45.65821" lon="4.54424">
        <ele>625</ele>
        <time>2019-07-29T12:23:28Z</time>
      </trkpt>
      <trkpt lat="45.65819" lon="4.54482">
        <ele>624</ele>
        <time>2019-07-29T12:23:38Z</time>
      </trkpt>
      <trkpt lat="45.65806" lon="4.5451">
        <ele>625</ele>
        <time>2019-07-29T12:23:43Z</time>
      </trkpt>
      <trkpt lat="45.65813" lon="4.54596">
        <ele>627</ele>
        <time>2019-07-29T12:23:57Z</time>
      </trkpt>
      <trkpt lat="45.65851" lon="4.54699">
        <ele>633</ele>
        <time>2019-07-29T12:24:16Z</time>
      </trkpt>
      <trkpt lat="45.65851" lon="4.54787">
        <ele>642</ele>
        <time>2019-07-29T12:24:31Z</time>
      </trkpt>
      <trkpt lat="45.65873" lon="4.54817">
        <ele>643</ele>
        <time>2019-07-29T12:24:38Z</time>
      </trkpt>
      <trkpt lat="45.65882" lon="4.54879">
        <ele>650</ele>
        <time>2019-07-29T12:24:48Z</time>
      </trkpt>
      <trkpt lat="45.65864" lon="4.54832">
        <ele>646</ele>
        <time>2019-07-29T12:24:57Z</time>
      </trkpt>
      <trkpt lat="45.65848" lon="4.54849">
        <ele>650</ele>
        <time>2019-07-29T12:25:02Z</time>
      </trkpt>
      <trkpt lat="45.65822" lon="4.54914">
        <ele>658</ele>
        <time>2019-07-29T12:25:14Z</time>
      </trkpt>
      <trkpt lat="45.65815" lon="4.54976">
        <ele>664</ele>
        <time>2019-07-29T12:25:24Z</time>
      </trkpt>
      <trkpt lat="45.65779" lon="4.55066">
        <ele>671</ele>
        <time>2019-07-29T12:25:41Z</time>
      </trkpt>
      <trkpt lat="45.65824" lon="4.55128">
        <ele>677</ele>
        <time>2019-07-29T12:25:56Z</time>
      </trkpt>
      <trkpt lat="45.65893" lon="4.55145">
        <ele>677</ele>
        <time>2019-07-29T12:26:12Z</time>
      </trkpt>
      <trkpt lat="45.65869" lon="4.55246">
        <ele>684</ele>
        <time>2019-07-29T12:26:29Z</time>
      </trkpt>
      <trkpt lat="45.65873" lon="4.55326">
        <ele>689</ele>
        <time>2019-07-29T12:26:42Z</time>
      </trkpt>
      <trkpt lat="45.6587" lon="4.55555">
        <ele>694</ele>
        <time>2019-07-29T12:27:20Z</time>
      </trkpt>
      <trkpt lat="45.65903" lon="4.55731">
        <ele>707</ele>
        <time>2019-07-29T12:27:49Z</time>
      </trkpt>
      <trkpt lat="45.65963" lon="4.55929">
        <ele>728</ele>
        <time>2019-07-29T12:28:25Z</time>
      </trkpt>
      <trkpt lat="45.65996" lon="4.55969">
        <ele>732</ele>
        <time>2019-07-29T12:28:35Z</time>
      </trkpt>
      <trkpt lat="45.66014" lon="4.56014">
        <ele>733</ele>
        <time>2019-07-29T12:28:43Z</time>
      </trkpt>
      <trkpt lat="45.6602" lon="4.56064">
        <ele>733</ele>
        <time>2019-07-29T12:28:52Z</time>
      </trkpt>
      <trkpt lat="45.66047" lon="4.56064">
        <ele>733</ele>
        <time>2019-07-29T12:28:58Z</time>
      </trkpt>
      <trkpt lat="45.66067" lon="4.56109">
        <ele>733</ele>
        <time>2019-07-29T12:29:07Z</time>
      </trkpt>
      <trkpt lat="45.66092" lon="4.56343">
        <ele>734</ele>
        <time>2019-07-29T12:29:45Z</time>
      </trkpt>
      <trkpt lat="45.65977" lon="4.56399">
        <ele>732</ele>
        <time>2019-07-29T12:30:14Z</time>
      </trkpt>
      <trkpt lat="45.65905" lon="4.56399">
        <ele>728</ele>
        <time>2019-07-29T12:30:30Z</time>
      </trkpt>
      <trkpt lat="45.65882" lon="4.56384">
        <ele>727</ele>
        <time>2019-07-29T12:30:36Z</time>
      </trkpt>
      <trkpt lat="45.65864" lon="4.56405">
        <ele>726</ele>
        <time>2019-07-29T12:30:42Z</time>
      </trkpt>
    </trkseg>
  </trk>
</gpx>